Time;durP1;ratioP1;P1;durP2;ratioP2;P2;SDS_P1;SDS_P2;PMS_P1;PMS_P2;Temp;Humidity;BMP_temperature;BMP_pressure;BME280_temperature;BME280_humidity;BME280_pressure;Samples;Min_cycle;Max_cycle;Signal;HPM_P1;HPM_P2
2023/01/24 00:02:08;;;;;;;3.17;1.40;;;18.60;66.20;;;;;;4497491;31;20207;-69
2023/01/24 00:04:34;;;;;;;2.17;1.20;;;18.60;66.20;;;;;;4487210;31;20135;-68
2023/01/24 00:07:00;;;;;;;2.70;1.23;;;18.60;66.20;;;;;;4497048;31;20529;-69
2023/01/24 00:09:26;;;;;;;3.15;1.50;;;18.60;66.20;;;;;;4481454;32;20590;-68
2023/01/24 00:11:51;;;;;;;3.85;1.48;;;18.60;66.20;;;;;;4480179;31;20255;-68
2023/01/24 00:14:17;;;;;;;3.38;1.30;;;18.60;66.20;;;;;;4493949;31;20159;-69
2023/01/24 00:16:43;;;;;;;2.38;1.35;;;18.60;66.20;;;;;;4470482;31;20123;-69
2023/01/24 00:19:10;;;;;;;2.70;1.30;;;18.50;66.10;;;;;;4470424;31;20151;-69
2023/01/24 00:21:35;;;;;;;2.58;1.30;;;18.50;66.10;;;;;;4498178;31;20077;-68
2023/01/24 00:24:01;;;;;;;3.15;1.40;;;18.50;66.10;;;;;;4496870;31;20869;-69
2023/01/24 00:26:27;;;;;;;3.20;1.42;;;18.50;67.00;;;;;;4481356;32;20124;-68
2023/01/24 00:28:53;;;;;;;4.40;1.65;;;18.50;66.10;;;;;;4469532;31;20209;-69
2023/01/24 00:31:19;;;;;;;2.20;1.42;;;18.50;66.10;;;;;;4483925;31;20108;-69
2023/01/24 00:33:45;;;;;;;2.30;1.33;;;18.50;66.10;;;;;;4469743;31;20144;-68
2023/01/24 00:36:11;;;;;;;2.55;1.40;;;18.50;66.10;;;;;;4497654;31;20116;-69
2023/01/24 00:38:37;;;;;;;3.53;1.40;;;18.40;66.10;;;;;;4472671;32;20073;-68
2023/01/24 00:41:03;;;;;;;2.47;1.33;;;18.40;66.00;;;;;;4497027;32;20132;-69
2023/01/24 00:43:29;;;;;;;2.17;1.35;;;18.40;66.10;;;;;;4498006;32;20143;-68
2023/01/24 00:45:56;;;;;;;3.65;1.65;;;18.40;66.10;;;;;;4479216;32;20121;-68
2023/01/24 00:48:22;;;;;;;2.10;1.40;;;18.40;66.10;;;;;;4492067;32;20444;-69
2023/01/24 00:50:48;;;;;;;2.88;1.50;;;18.40;66.10;;;;;;4496859;32;20318;-68
2023/01/24 00:53:14;;;;;;;2.63;1.35;;;18.40;66.90;;;;;;4497322;32;20132;-69
2023/01/24 00:55:44;;;;;;;3.08;1.50;;;18.40;66.10;;;;;;4483023;32;20103;-68
2023/01/24 00:58:10;;;;;;;2.25;1.20;;;18.40;66.10;;;;;;4496662;32;20580;-68
2023/01/24 01:00:38;;;;;;;2.00;1.40;;;18.30;66.00;;;;;;4469309;32;20243;-68
2023/01/24 01:03:06;;;;;;;2.85;1.25;;;18.30;66.00;;;;;;4497194;31;20133;-69
2023/01/24 01:05:31;;;;;;;3.95;1.30;;;18.30;66.00;;;;;;4501106;31;20536;-69
2023/01/24 01:07:57;;;;;;;2.13;1.27;;;18.30;66.00;;;;;;4470008;32;20136;-68
2023/01/24 01:10:23;;;;;;;2.42;1.30;;;18.30;66.90;;;;;;4494320;31;20195;-68
2023/01/24 01:12:49;;;;;;;2.70;1.50;;;18.30;66.00;;;;;;4472697;32;20078;-69
2023/01/24 01:15:15;;;;;;;4.05;1.40;;;18.30;66.00;;;;;;4469776;32;20120;-69
2023/01/24 01:17:41;;;;;;;3.83;1.30;;;18.20;66.00;;;;;;4470516;31;20210;-68
2023/01/24 01:20:08;;;;;;;1.83;1.35;;;18.20;66.00;;;;;;4499416;31;20124;-68
2023/01/24 01:22:33;;;;;;;2.30;1.30;;;18.20;66.00;;;;;;4500866;31;20136;-69
2023/01/24 01:24:59;;;;;;;2.15;1.27;;;18.20;66.00;;;;;;4480783;32;20136;-68
2023/01/24 01:27:25;;;;;;;2.47;1.50;;;18.20;66.00;;;;;;4494178;31;20117;-69
2023/01/24 01:29:51;;;;;;;2.72;1.58;;;18.20;66.00;;;;;;4500320;31;20077;-68
2023/01/24 01:32:16;;;;;;;1.88;1.20;;;18.20;66.00;;;;;;4499612;31;20144;-69
2023/01/24 01:34:42;;;;;;;3.42;1.40;;;18.20;66.00;;;;;;4476693;32;20173;-69
2023/01/24 01:37:08;;;;;;;2.20;1.27;;;18.20;65.90;;;;;;4482001;31;20125;-69
2023/01/24 01:39:34;;;;;;;3.13;1.20;;;18.20;66.00;;;;;;4486337;31;20125;-69
2023/01/24 01:42:00;;;;;;;1.50;1.10;;;18.20;66.00;;;;;;4499315;31;20263;-69
2023/01/24 01:44:46;;;;;;;2.33;1.20;;;18.20;66.00;;;;;;4500000;31;20521;-69
2023/01/24 01:47:15;;;;;;;1.75;1.27;;;18.10;65.90;;;;;;4499566;31;20085;-68
2023/01/24 01:49:46;;;;;;;4.47;1.42;;;18.10;65.90;;;;;;4499033;31;20133;-70
2023/01/24 01:52:13;;;;;;;1.67;1.17;;;18.10;65.90;;;;;;4499998;31;20132;-69
2023/01/24 01:54:41;;;;;;;2.10;1.25;;;18.10;65.90;;;;;;4498958;31;20147;-69
2023/01/24 01:57:10;;;;;;;2.90;1.30;;;18.10;65.90;;;;;;4500040;31;20144;-68
2023/01/24 01:59:39;;;;;;;2.50;1.30;;;18.10;65.90;;;;;;4485653;31;20143;-68
2023/01/24 02:02:08;;;;;;;2.72;1.52;;;18.10;65.90;;;;;;4499212;31;20144;-69
2023/01/24 02:04:40;;;;;;;1.60;1.25;;;18.00;65.90;;;;;;4500118;31;20128;-68
2023/01/24 02:07:12;;;;;;;2.30;1.25;;;18.00;65.90;;;;;;4498627;31;20132;-68
2023/01/24 02:09:43;;;;;;;1.75;1.10;;;18.00;65.90;;;;;;4500166;31;20678;-68
2023/01/24 02:12:23;;;;;;;2.17;1.40;;;18.00;66.00;;;;;;4498927;31;20132;-68
2023/01/24 02:17:39;;;;;;;1.80;1.17;;;18.00;66.00;;;;;;4488172;31;20256;-68
2023/01/24 02:20:27;;;;;;;3.10;1.60;;;18.00;66.00;;;;;;4498523;31;20190;-68
2023/01/24 02:23:15;;;;;;;1.63;1.20;;;18.00;65.90;;;;;;4499709;31;20148;-68
2023/01/24 02:26:01;;;;;;;1.73;1.30;;;18.00;66.00;;;;;;4485511;31;20221;-68
2023/01/24 02:28:27;;;;;;;2.55;1.27;;;18.00;66.00;;;;;;4498431;31;20206;-69
2023/01/24 02:30:57;;;;;;;1.65;1.10;;;17.90;65.90;;;;;;4498749;31;20147;-68
2023/01/24 02:33:23;;;;;;;2.08;1.30;;;17.90;66.00;;;;;;4484412;31;20194;-68
2023/01/24 02:35:49;;;;;;;2.13;1.30;;;17.90;65.90;;;;;;4499345;31;20133;-68
2023/01/24 02:38:28;;;;;;;2.17;1.17;;;17.90;65.90;;;;;;4498300;31;20142;-68
2023/01/24 02:40:56;;;;;;;2.33;1.27;;;17.90;66.00;;;;;;4484288;31;20112;-68
2023/01/24 02:43:25;;;;;;;1.45;1.20;;;17.90;66.00;;;;;;4499728;31;20261;-68
2023/01/24 02:45:51;;;;;;;1.90;1.08;;;17.90;66.00;;;;;;4497833;31;20152;-68
2023/01/24 02:48:17;;;;;;;2.53;1.30;;;17.90;66.00;;;;;;4499514;31;20186;-68
2023/01/24 02:53:31;;;;;;;2.10;1.40;;;17.90;66.00;;;;;;4498524;31;20196;-68
2023/01/24 02:58:44;;;;;;;2.10;1.00;;;17.80;66.00;;;;;;4497895;31;20812;-68
2023/01/24 03:01:11;;;;;;;1.90;1.23;;;17.80;66.00;;;;;;4485265;31;20121;-68
2023/01/24 03:03:37;;;;;;;2.08;1.42;;;17.80;66.00;;;;;;4498179;31;20190;-68
2023/01/24 03:06:03;;;;;;;1.98;1.15;;;17.80;66.00;;;;;;4498801;31;20144;-68
2023/01/24 03:08:32;;;;;;;2.70;1.33;;;17.80;66.00;;;;;;4484802;31;20612;-68
2023/01/24 03:10:58;;;;;;;2.25;1.20;;;17.80;66.00;;;;;;4497962;31;20133;-69
2023/01/24 03:35:23;;;;;;;1.55;1.10;;;17.70;65.90;;;;;;4497730;31;20136;-68
2023/01/24 03:40:35;;;;;;;2.00;1.13;;;17.70;65.90;;;;;;4485390;31;20136;-68
2023/01/24 03:43:01;;;;;;;1.35;1.00;;;17.70;66.00;;;;;;4484516;31;20727;-68
2023/01/24 03:45:30;;;;;;;1.83;1.05;;;17.60;65.90;;;;;;4497134;31;20124;-68
2023/01/24 03:47:58;;;;;;;2.67;1.10;;;17.60;66.00;;;;;;4484159;31;20148;-68
2023/01/24 03:53:16;;;;;;;1.17;1.00;;;17.60;66.00;;;;;;4497919;31;20193;-68
2023/01/24 03:55:42;;;;;;;1.40;1.02;;;17.60;66.00;;;;;;4498597;31;20081;-68
2023/01/24 03:58:09;;;;;;;1.58;1.08;;;17.60;66.00;;;;;;4482933;31;20129;-69
2023/01/24 04:00:35;;;;;;;1.98;0.98;;;17.60;65.90;;;;;;4498572;31;20128;-68
2023/01/24 04:03:01;;;;;;;1.75;1.05;;;17.60;65.90;;;;;;4495954;31;20636;-68
2023/01/24 04:05:27;;;;;;;1.55;0.88;;;17.60;66.00;;;;;;4483962;31;20120;-69
2023/01/24 04:07:54;;;;;;;2.13;0.90;;;17.60;66.00;;;;;;4497386;31;20128;-68
2023/01/24 04:10:20;;;;;;;1.40;1.08;;;17.60;66.00;;;;;;4483650;31;20206;-68
2023/01/24 04:12:46;;;;;;;1.63;1.02;;;17.60;66.00;;;;;;4498377;31;20081;-68
2023/01/24 04:15:19;;;;;;;1.30;0.90;;;17.60;65.90;;;;;;4482769;31;20147;-69
2023/01/24 04:17:45;;;;;;;1.30;1.20;;;17.60;66.00;;;;;;4498573;31;20243;-68
2023/01/24 04:20:11;;;;;;;1.83;1.05;;;17.60;66.00;;;;;;4496646;31;20129;-68
2023/01/24 04:22:37;;;;;;;1.27;0.95;;;17.60;65.90;;;;;;4498341;31;20159;-68
2023/01/24 04:25:04;;;;;;;1.00;0.90;;;17.60;66.00;;;;;;4497350;31;20582;-68
2023/01/24 04:27:30;;;;;;;1.33;0.98;;;17.60;66.00;;;;;;4497512;31;20133;-68
2023/01/24 04:29:55;;;;;;;2.25;0.90;;;17.50;65.90;;;;;;4498216;31;20092;-68
2023/01/24 04:32:21;;;;;;;1.33;1.00;;;17.50;65.90;;;;;;4482576;31;20135;-69
2023/01/24 04:34:48;;;;;;;1.15;0.88;;;17.50;65.90;;;;;;4498073;31;20117;-68
2023/01/24 04:37:13;;;;;;;1.77;1.05;;;17.50;65.90;;;;;;4496428;31;20124;-68
2023/01/24 04:39:39;;;;;;;1.33;1.00;;;17.50;65.90;;;;;;4497066;32;20125;-68
2023/01/24 04:42:06;;;;;;;1.38;1.02;;;17.50;66.00;;;;;;4482890;32;20314;-68
2023/01/24 04:44:32;;;;;;;3.30;1.23;;;17.50;65.90;;;;;;4497199;32;20593;-68
2023/01/24 04:46:59;;;;;;;1.65;1.05;;;17.50;66.00;;;;;;4497807;32;20606;-68
2023/01/24 04:49:25;;;;;;;1.25;0.95;;;17.50;65.90;;;;;;4482697;32;20136;-69
2023/01/24 04:51:51;;;;;;;1.63;1.20;;;17.50;66.00;;;;;;4498043;32;20147;-68
2023/01/24 04:54:17;;;;;;;0.73;0.70;;;17.50;66.00;;;;;;4496723;32;20190;-69
2023/01/24 04:56:43;;;;;;;1.67;1.10;;;17.50;66.00;;;;;;4496896;32;20593;-68
2023/01/24 04:59:12;;;;;;;1.20;0.90;;;17.50;66.00;;;;;;4496962;31;20209;-68
2023/01/24 05:01:39;;;;;;;1.35;0.85;;;17.50;65.90;;;;;;4472200;32;20183;-69
2023/01/24 05:04:05;;;;;;;1.25;0.88;;;17.50;65.90;;;;;;4497509;32;20566;-68
2023/01/24 05:06:32;;;;;;;1.45;1.00;;;17.40;65.90;;;;;;4495551;31;20574;-68
2023/01/24 05:08:58;;;;;;;1.13;0.80;;;17.40;65.80;;;;;;4474984;32;20139;-68
2023/01/24 05:11:24;;;;;;;1.17;0.90;;;17.40;65.90;;;;;;4496433;32;20116;-68
2023/01/24 05:13:51;;;;;;;1.33;0.90;;;17.40;65.90;;;;;;4497798;32;20250;-68
2023/01/24 05:16:17;;;;;;;1.20;0.88;;;17.40;66.80;;;;;;4496709;32;20266;-68
2023/01/24 05:18:43;;;;;;;1.20;0.70;;;17.40;65.90;;;;;;4496491;32;20127;-68
2023/01/24 05:21:12;;;;;;;1.40;0.98;;;17.40;65.90;;;;;;4497673;32;20076;-68
2023/01/24 05:23:38;;;;;;;1.25;0.90;;;17.40;65.90;;;;;;4496434;32;20173;-68
2023/01/24 05:26:04;;;;;;;1.50;1.10;;;17.40;66.00;;;;;;4496829;32;20126;-68
2023/01/24 05:28:31;;;;;;;1.52;0.90;;;17.30;65.90;;;;;;4496171;32;20125;-68
2023/01/24 05:31:02;;;;;;;1.63;0.80;;;17.30;66.00;;;;;;4497696;32;20144;-68
2023/01/24 05:33:28;;;;;;;1.75;1.10;;;17.40;66.00;;;;;;4482702;32;20337;-68
2023/01/24 05:35:58;;;;;;;0.98;0.90;;;17.30;65.90;;;;;;4482904;32;20141;-68
2023/01/24 05:38:24;;;;;;;1.02;0.93;;;17.30;65.90;;;;;;4497654;32;20073;-68
2023/01/24 05:40:49;;;;;;;0.90;0.63;;;17.30;65.90;;;;;;4496342;32;20139;-68
2023/01/24 05:43:15;;;;;;;1.27;1.00;;;17.30;65.90;;;;;;4497807;32;20125;-68
2023/01/24 05:45:41;;;;;;;1.35;0.98;;;17.30;65.90;;;;;;4495927;32;20187;-68
2023/01/24 05:48:07;;;;;;;1.85;0.90;;;17.30;65.80;;;;;;4497499;32;20186;-68
2023/01/24 05:50:33;;;;;;;1.30;0.98;;;17.30;65.80;;;;;;4497716;31;20475;-68
2023/01/24 05:53:04;;;;;;;1.30;0.80;;;17.30;65.80;;;;;;4499941;31;20158;-68
2023/01/24 05:55:29;;;;;;;1.10;1.00;;;17.30;65.70;;;;;;4499200;31;20117;-68
2023/01/24 05:57:59;;;;;;;1.15;0.90;;;17.30;65.70;;;;;;4499098;31;20563;-68
2023/01/24 06:00:25;;;;;;;1.00;0.90;;;17.30;65.70;;;;;;4500330;31;20245;-68
2023/01/24 06:02:51;;;;;;;1.50;0.93;;;17.30;65.70;;;;;;4484653;31;20274;-68
2023/01/24 06:05:17;;;;;;;1.52;0.95;;;17.30;65.50;;;;;;4500012;31;20113;-68
2023/01/24 06:07:43;;;;;;;1.20;0.95;;;17.30;65.50;;;;;;4485013;31;20176;-68
2023/01/24 06:10:09;;;;;;;1.58;1.00;;;17.40;65.50;;;;;;4499718;31;20513;-68
2023/01/24 06:12:35;;;;;;;1.33;0.90;;;17.40;65.50;;;;;;4500097;31;20194;-68
2023/01/24 06:15:01;;;;;;;1.13;0.95;;;17.40;65.50;;;;;;4498896;31;20578;-68
2023/01/24 06:17:26;;;;;;;1.20;0.80;;;17.40;65.40;;;;;;4500137;31;20143;-68
2023/01/24 06:19:52;;;;;;;1.15;0.85;;;17.40;65.30;;;;;;4484429;31;21135;-68
2023/01/24 06:22:48;;;;;;;0.90;0.68;;;17.40;65.30;;;;;;4499911;31;20206;-68
2023/01/24 06:25:21;;;;;;;1.25;0.95;;;17.40;65.10;;;;;;4485208;31;20159;-68
2023/01/24 06:27:52;;;;;;;0.80;0.70;;;17.40;65.20;;;;;;4498840;31;20136;-68
2023/01/24 06:30:19;;;;;;;0.95;0.80;;;17.40;65.10;;;;;;4500070;31;20136;-68
2023/01/24 06:33:03;;;;;;;1.48;0.80;;;17.50;65.20;;;;;;4485819;31;20279;-68
2023/01/24 06:36:04;;;;;;;0.77;0.73;;;17.50;65.10;;;;;;4485378;31;20259;-68
2023/01/24 06:38:30;;;;;;;0.70;0.70;;;17.50;65.10;;;;;;4450856;32;20114;-68
2023/01/24 06:41:00;;;;;;;0.70;0.70;;;17.50;65.10;;;;;;4485137;31;20129;-68
2023/01/24 06:43:26;;;;;;;0.95;0.80;;;17.50;65.10;;;;;;4499750;31;20168;-68
2023/01/24 06:45:52;;;;;;;0.98;0.85;;;17.50;65.10;;;;;;4483647;31;20135;-68
2023/01/24 06:48:18;;;;;;;0.85;0.85;;;17.50;65.00;;;;;;4485178;31;20139;-68
2023/01/24 06:50:45;;;;;;;1.10;0.80;;;17.50;65.00;;;;;;4498719;31;20133;-68
2023/01/24 06:53:12;;;;;;;1.00;0.77;;;17.50;65.00;;;;;;4484842;31;20171;-68
2023/01/24 06:55:38;;;;;;;0.75;0.60;;;17.50;64.90;;;;;;4498454;31;20136;-67
2023/01/24 06:58:04;;;;;;;1.58;0.88;;;17.50;64.90;;;;;;4483749;31;20279;-68
2023/01/24 07:00:30;;;;;;;1.60;1.02;;;17.50;64.90;;;;;;4499165;31;20278;-68
2023/01/24 07:03:07;;;;;;;1.00;0.70;;;17.50;64.80;;;;;;4483617;31;20270;-68
2023/01/24 07:05:36;;;;;;;1.45;1.00;;;17.50;64.80;;;;;;4484797;31;20131;-68
2023/01/24 07:08:04;;;;;;;1.55;1.15;;;17.50;64.80;;;;;;4484856;31;20136;-68
2023/01/24 07:10:29;;;;;;;1.38;0.85;;;17.50;64.70;;;;;;4498255;31;20121;-68
2023/01/24 07:12:55;;;;;;;1.08;0.98;;;17.50;64.70;;;;;;4484957;31;20178;-68
2023/01/24 07:15:21;;;;;;;2.00;1.10;;;17.50;64.60;;;;;;4497696;31;20116;-68
2023/01/24 07:17:48;;;;;;;0.70;0.70;;;17.50;64.60;;;;;;4499454;31;20144;-67
2023/01/24 07:20:14;;;;;;;0.70;0.70;;;17.60;65.50;;;;;;4497571;31;20329;-68
2023/01/24 07:22:41;;;;;;;1.90;0.80;;;17.60;64.60;;;;;;4484740;31;20283;-68
2023/01/24 07:25:26;;;;;;;1.45;1.08;;;17.60;64.60;;;;;;4498336;31;20325;-68
2023/01/24 07:27:53;;;;;;;1.13;0.90;;;17.60;64.50;;;;;;4483470;31;20120;-68
2023/01/24 07:30:19;;;;;;;1.30;0.93;;;17.60;64.50;;;;;;4484881;31;20287;-68
2023/01/24 07:32:45;;;;;;;0.82;0.82;;;17.50;64.50;;;;;;4483082;31;20116;-68
2023/01/24 07:35:11;;;;;;;1.17;1.05;;;17.50;64.60;;;;;;4498877;31;20570;-68
2023/01/24 07:37:37;;;;;;;1.08;0.80;;;17.50;64.60;;;;;;4497526;31;20180;-68
2023/01/24 07:40:03;;;;;;;1.13;1.02;;;17.50;64.60;;;;;;4497461;31;20213;-68
2023/01/24 07:42:29;;;;;;;1.42;0.80;;;17.50;64.60;;;;;;4497532;31;20069;-68
2023/01/24 07:44:56;;;;;;;1.40;1.15;;;17.50;64.60;;;;;;4497233;31;20722;-68
2023/01/24 07:47:24;;;;;;;1.00;0.90;;;17.50;64.70;;;;;;4498703;31;20171;-67
2023/01/24 07:49:49;;;;;;;0.85;0.85;;;17.50;64.70;;;;;;4497079;31;20117;-68
2023/01/24 07:52:15;;;;;;;1.60;0.90;;;17.50;64.70;;;;;;4484545;31;20238;-68
2023/01/24 07:54:41;;;;;;;1.15;0.98;;;17.40;64.60;;;;;;4483111;31;20136;-68
2023/01/24 07:57:08;;;;;;;1.00;0.90;;;17.40;64.70;;;;;;4497343;31;20128;-68
2023/01/24 07:59:33;;;;;;;1.35;0.90;;;17.50;64.70;;;;;;4497193;31;20105;-68
2023/01/24 08:01:59;;;;;;;1.48;1.00;;;17.40;65.50;;;;;;4496202;31;20109;-68
2023/01/24 08:04:25;;;;;;;1.25;0.93;;;17.40;64.70;;;;;;4497248;31;20179;-68
2023/01/24 08:09:35;;;;;;;0.70;0.70;;;17.40;64.70;;;;;;4497740;31;20179;-68
2023/01/24 08:12:05;;;;;;;1.10;1.00;;;17.40;64.70;;;;;;4497026;31;20093;-67
2023/01/24 08:14:33;;;;;;;1.85;1.23;;;17.40;64.90;;;;;;4483509;31;20135;-67
2023/01/24 08:16:59;;;;;;;2.65;1.25;;;17.40;65.10;;;;;;4483833;31;20089;-67
2023/01/24 08:19:25;;;;;;;1.30;1.20;;;17.30;65.30;;;;;;4496190;31;20097;-72
2023/01/24 08:21:51;;;;;;;1.30;1.00;;;17.30;65.60;;;;;;4498044;31;20412;-68
2023/01/24 08:24:17;;;;;;;3.25;0.90;;;17.40;65.60;;;;;;4480862;31;20234;-68
2023/01/24 08:26:46;;;;;;;1.00;0.80;;;17.50;65.50;;;;;;4483574;31;20529;-68
2023/01/24 08:29:12;;;;;;;0.82;0.80;;;17.60;65.20;;;;;;4483453;31;20133;-67
2023/01/24 08:31:38;;;;;;;1.35;1.02;;;17.70;64.80;;;;;;4483067;31;20588;-68
2023/01/24 08:34:04;;;;;;;1.42;0.80;;;17.90;64.50;;;;;;4484171;31;20210;-67
2023/01/24 08:36:30;;;;;;;1.02;0.82;;;18.00;64.20;;;;;;4473829;31;20159;-67
2023/01/24 08:38:56;;;;;;;1.88;1.02;;;18.20;63.80;;;;;;4468888;32;20137;-68
2023/01/24 08:41:22;;;;;;;0.70;0.70;;;18.30;63.40;;;;;;4469493;32;20155;-68
2023/01/24 08:43:51;;;;;;;1.55;0.80;;;18.50;63.00;;;;;;4489106;32;20243;-68
2023/01/24 08:46:17;;;;;;;1.77;0.90;;;18.60;62.60;;;;;;4478398;32;20133;-68
2023/01/24 08:48:42;;;;;;;1.33;1.00;;;18.70;62.20;;;;;;4497666;32;20458;-68
2023/01/24 08:51:08;;;;;;;1.13;0.85;;;18.90;61.90;;;;;;4483766;32;20120;-68
2023/01/24 08:53:34;;;;;;;2.35;0.80;;;19.10;61.70;;;;;;4496566;32;20136;-68
2023/01/24 08:56:02;;;;;;;1.88;0.80;;;19.20;61.40;;;;;;4497699;32;20196;-67
2023/01/24 08:58:28;;;;;;;1.60;0.90;;;19.30;61.10;;;;;;4482152;32;20668;-68
2023/01/24 09:00:54;;;;;;;1.45;0.90;;;19.30;60.90;;;;;;4498008;32;20124;-68
2023/01/24 09:03:20;;;;;;;1.77;0.82;;;19.40;60.80;;;;;;4496240;32;20167;-67
2023/01/24 09:05:46;;;;;;;1.25;0.80;;;19.40;60.80;;;;;;4496994;32;20129;-68
2023/01/24 09:08:12;;;;;;;1.83;1.10;;;19.40;60.80;;;;;;4483733;32;20227;-68
2023/01/24 09:10:38;;;;;;;1.95;1.02;;;19.40;60.70;;;;;;4494161;32;20171;-68
2023/01/24 09:13:04;;;;;;;1.90;1.38;;;19.40;60.80;;;;;;4495337;32;20241;-67
2023/01/24 09:15:31;;;;;;;1.35;0.88;;;19.40;60.70;;;;;;4492343;32;20180;-68
2023/01/24 09:18:01;;;;;;;1.15;0.90;;;19.40;60.70;;;;;;4481628;32;20156;-67
2023/01/24 09:20:27;;;;;;;1.48;1.05;;;19.40;60.60;;;;;;4478125;32;20283;-67
2023/01/24 09:22:53;;;;;;;1.20;1.02;;;19.40;60.50;;;;;;4481228;32;20146;-68
2023/01/24 09:25:19;;;;;;;2.10;1.10;;;19.50;60.50;;;;;;4481213;31;20208;-68
2023/01/24 09:27:51;;;;;;;1.33;1.00;;;19.40;60.30;;;;;;4497377;31;20481;-68
2023/01/24 09:30:18;;;;;;;2.27;0.77;;;19.50;60.20;;;;;;4497029;31;20128;-67
2023/01/24 09:32:44;;;;;;;1.38;1.05;;;19.50;60.20;;;;;;4496616;31;20221;-67
2023/01/24 09:35:09;;;;;;;3.10;0.98;;;19.50;60.10;;;;;;4497979;31;20278;-67
2023/01/24 09:37:35;;;;;;;1.95;0.95;;;19.60;60.10;;;;;;4495354;31;20113;-68
2023/01/24 09:40:02;;;;;;;1.15;1.00;;;19.60;60.00;;;;;;4483988;31;20147;-68
2023/01/24 09:42:36;;;;;;;1.15;0.80;;;19.60;59.90;;;;;;4481934;31;20092;-68
2023/01/24 09:45:30;;;;;;;1.45;1.10;;;19.60;59.90;;;;;;4496869;31;20174;-67
2023/01/24 09:48:00;;;;;;;1.92;1.10;;;19.60;59.80;;;;;;4486228;31;20277;-67
2023/01/24 09:50:39;;;;;;;2.03;1.10;;;19.60;59.80;;;;;;4499542;31;20132;-67
2023/01/24 09:53:12;;;;;;;1.90;1.10;;;19.60;59.90;;;;;;4499745;31;20286;-68
2023/01/24 09:55:41;;;;;;;1.50;1.15;;;19.70;60.00;;;;;;4500585;31;20124;-68
2023/01/24 09:58:18;;;;;;;5.03;1.27;;;19.60;60.10;;;;;;4498667;31;20176;-68
2023/01/24 10:00:45;;;;;;;2.03;1.20;;;19.60;60.20;;;;;;4486165;31;20151;-67
2023/01/24 10:03:22;;;;;;;2.00;1.13;;;19.70;60.40;;;;;;4484707;31;20708;-68
2023/01/24 10:05:54;;;;;;;1.85;0.90;;;19.60;60.50;;;;;;4485472;31;20217;-68
2023/01/24 10:08:33;;;;;;;1.92;1.00;;;19.60;60.50;;;;;;4499808;31;20077;-67
2023/01/24 10:11:07;;;;;;;1.45;0.98;;;19.60;60.70;;;;;;4498877;31;20136;-68
2023/01/24 10:13:54;;;;;;;1.75;0.88;;;19.60;60.80;;;;;;4500086;31;20144;-67
2023/01/24 10:16:45;;;;;;;2.80;1.40;;;19.60;61.80;;;;;;4499212;31;20172;-68
2023/01/24 10:19:29;;;;;;;2.40;1.10;;;19.60;61.00;;;;;;4487752;31;20628;-69
2023/01/24 10:22:04;;;;;;;;;;;19.60;61.10;;;;;;4500857;31;20286;-68
2023/01/24 10:24:34;;;;;;;1.70;1.20;;;19.50;61.10;;;;;;4498808;31;20033;-67
2023/01/24 10:27:01;;;;;;;1.10;0.90;;;19.60;61.20;;;;;;4498643;31;20112;-66
2023/01/24 10:29:31;;;;;;;1.25;1.00;;;19.60;61.30;;;;;;4479191;31;30118;-66
2023/01/24 10:32:12;;;;;;;1.38;1.20;;;19.60;61.40;;;;;;4488442;31;20140;-66
2023/01/24 10:34:42;;;;;;;1.83;1.20;;;19.50;61.40;;;;;;4476489;31;20143;-67
2023/01/24 10:37:22;;;;;;;1.10;0.90;;;19.60;61.40;;;;;;4479519;31;20470;-67
2023/01/24 10:39:48;;;;;;;1.17;1.00;;;19.50;61.40;;;;;;4485331;31;20120;-68
2023/01/24 10:42:21;;;;;;;1.52;0.95;;;19.60;61.50;;;;;;4485000;31;20577;-67
2023/01/24 10:44:47;;;;;;;2.10;1.02;;;19.60;61.50;;;;;;4487104;31;20167;-67
2023/01/24 10:47:21;;;;;;;1.35;0.95;;;19.60;61.50;;;;;;4499274;31;20177;-66
2023/01/24 10:50:02;;;;;;;2.20;1.00;;;19.60;61.60;;;;;;4497667;31;20151;-67
2023/01/24 10:52:28;;;;;;;1.58;1.00;;;19.60;61.50;;;;;;4499459;31;20140;-67
2023/01/24 10:54:57;;;;;;;4.53;1.20;;;19.60;61.60;;;;;;4497110;31;20194;-66
2023/01/24 10:57:43;;;;;;;4.50;0.95;;;19.60;61.50;;;;;;4482650;31;20168;-69
2023/01/24 11:00:25;;;;;;;2.63;1.00;;;19.60;62.40;;;;;;4487324;31;20665;-66
2023/01/24 11:03:19;;;;;;;1.58;0.82;;;19.60;61.60;;;;;;4478745;31;20113;-67
2023/01/24 11:05:54;;;;;;;1.45;1.00;;;19.70;61.70;;;;;;4498204;31;20137;-68
2023/01/24 11:08:36;;;;;;;2.00;0.93;;;19.60;61.70;;;;;;4498597;31;20081;-66
2023/01/24 11:11:03;;;;;;;1.38;0.90;;;19.60;61.70;;;;;;4482942;31;20195;-68
2023/01/24 11:13:33;;;;;;;1.88;0.93;;;19.60;61.70;;;;;;4468957;31;20721;-67
2023/01/24 11:16:27;;;;;;;2.75;1.00;;;19.70;61.80;;;;;;4495422;31;20663;-68
2023/01/24 11:19:04;;;;;;;1.27;0.90;;;19.70;61.80;;;;;;4496218;31;20246;-68
2023/01/24 11:21:31;;;;;;;1.15;1.00;;;19.70;61.80;;;;;;4498894;31;20147;-66
2023/01/24 11:24:02;;;;;;;1.63;0.85;;;19.70;61.70;;;;;;4497133;31;20132;-67
2023/01/24 11:26:31;;;;;;;1.13;0.90;;;19.70;61.60;;;;;;4498907;31;20121;-67
2023/01/24 11:29:01;;;;;;;2.00;1.02;;;19.70;61.60;;;;;;4468457;31;25928;-67
2023/01/24 11:31:38;;;;;;;1.38;1.10;;;19.70;61.70;;;;;;4497119;31;20654;-67
2023/01/24 11:34:15;;;;;;;1.95;1.10;;;19.70;61.70;;;;;;4495320;31;20116;-66
2023/01/24 11:37:11;;;;;;;1.50;1.13;;;19.60;61.70;;;;;;4496343;31;20228;-67
2023/01/24 11:39:53;;;;;;;1.90;1.10;;;19.60;61.90;;;;;;4494962;31;20659;-66
2023/01/24 11:42:36;;;;;;;2.50;1.30;;;19.50;62.00;;;;;;4511130;31;20142;-66
2023/01/24 11:45:36;;;;;;;3.05;1.45;;;19.50;63.10;;;;;;4501885;31;20592;-67
2023/01/24 11:48:21;;;;;;;2.40;1.13;;;19.50;62.20;;;;;;4482573;31;20180;-66
2023/01/24 11:51:03;;;;;;;1.40;1.20;;;19.50;62.20;;;;;;4482262;31;20129;-66
2023/01/24 11:53:55;;;;;;;2.45;1.30;;;19.50;63.00;;;;;;4467379;32;20121;-67
2023/01/24 11:56:46;;;;;;;1.55;0.98;;;19.60;62.00;;;;;;4482266;31;20141;-66
2023/01/24 11:59:37;;;;;;;2.08;1.30;;;19.70;62.00;;;;;;4481809;32;20152;-66
2023/01/24 12:02:25;;;;;;;6.30;1.42;;;19.70;61.90;;;;;;4481103;32;20176;-67
2023/01/24 12:05:12;;;;;;;6.85;1.50;;;19.80;61.90;;;;;;4482439;32;20298;-66
2023/01/24 12:07:55;;;;;;;2.80;1.40;;;19.80;61.90;;;;;;4481411;31;20133;-66
2023/01/24 12:10:57;;;;;;;4.25;1.42;;;19.80;61.80;;;;;;4481561;32;20135;-67
2023/01/24 12:13:47;;;;;;;3.65;1.40;;;19.80;61.70;;;;;;4482363;31;20121;-71
2023/01/24 12:16:42;;;;;;;1.85;1.40;;;19.90;61.70;;;;;;4479939;31;20147;-67
2023/01/24 12:19:33;;;;;;;2.58;1.60;;;19.80;61.60;;;;;;4507707;31;20140;-68
2023/01/24 12:21:59;;;;;;;3.83;1.60;;;19.80;61.70;;;;;;4471202;31;20140;-68
2023/01/24 12:24:32;;;;;;;3.33;1.38;;;19.80;61.70;;;;;;4480155;31;20140;-68
2023/01/24 12:27:06;;;;;;;6.95;1.50;;;19.90;61.80;;;;;;4487061;31;20121;-67
2023/01/24 12:30:01;;;;;;;2.75;1.13;;;19.90;61.80;;;;;;4490723;31;20243;-67
2023/01/24 12:32:53;;;;;;;3.88;1.70;;;19.90;61.80;;;;;;4477670;31;20151;-68
2023/01/24 12:35:31;;;;;;;3.13;1.33;;;19.90;61.80;;;;;;4488372;31;20144;-68
2023/01/24 12:37:57;;;;;;;3.90;1.65;;;19.90;61.90;;;;;;4493930;31;20128;-67
2023/01/24 12:40:38;;;;;;;3.78;1.67;;;19.80;61.90;;;;;;4468495;31;20125;-67
2023/01/24 12:43:20;;;;;;;2.70;1.63;;;19.90;61.90;;;;;;4497685;31;20148;-67
2023/01/24 12:46:06;;;;;;;2.00;1.38;;;19.90;62.00;;;;;;4471351;32;20132;-67
2023/01/24 12:48:50;;;;;;;2.33;1.52;;;19.80;62.00;;;;;;4497092;32;20180;-67
2023/01/24 12:51:41;;;;;;;2.90;1.60;;;19.90;62.00;;;;;;4496397;32;20532;-67
2023/01/24 12:55:02;;;;;;;4.07;1.70;;;19.90;61.90;;;;;;4484318;31;20136;-68
2023/01/24 12:57:28;;;;;;;2.40;1.50;;;19.90;61.90;;;;;;4451926;31;20136;-67
2023/01/24 12:59:54;;;;;;;6.72;1.95;;;19.80;62.00;;;;;;4510290;31;20127;-67
2023/01/24 13:03:00;;;;;;;4.80;1.83;;;19.80;62.00;;;;;;4493707;31;20186;-67
2023/01/24 13:05:40;;;;;;;3.75;1.65;;;19.80;61.70;;;;;;4490342;31;20121;-66
2023/01/24 13:08:21;;;;;;;4.90;1.95;;;19.80;61.70;;;;;;4512440;31;20097;-66
2023/01/24 13:11:16;;;;;;;8.88;2.35;;;19.80;61.70;;;;;;4507719;31;20124;-66
2023/01/24 13:14:10;;;;;;;4.35;1.60;;;19.70;61.70;;;;;;4510287;31;20140;-67
2023/01/24 13:16:45;;;;;;;2.60;1.75;;;19.70;61.70;;;;;;4512249;31;20562;-67
2023/01/24 13:19:20;;;;;;;2.72;1.67;;;19.70;61.70;;;;;;4506883;31;20129;-67
2023/01/24 13:22:00;;;;;;;6.82;1.63;;;19.70;61.80;;;;;;4512483;31;20136;-66
2023/01/24 13:24:56;;;;;;;3.60;1.90;;;19.60;61.90;;;;;;4493685;31;20128;-67
2023/01/24 13:27:44;;;;;;;2.63;1.65;;;19.60;62.10;;;;;;4494629;31;20144;-66
2023/01/24 13:30:26;;;;;;;1.75;1.50;;;19.50;62.00;;;;;;4512441;31;20186;-67
2023/01/24 13:32:53;;;;;;;4.78;1.95;;;19.50;62.20;;;;;;4507265;31;20140;-67
2023/01/24 13:35:25;;;;;;;2.47;1.65;;;19.50;62.30;;;;;;4497871;31;20556;-68
2023/01/24 13:37:59;;;;;;;2.78;1.85;;;19.50;62.40;;;;;;4493354;31;20128;-66
2023/01/24 13:40:30;;;;;;;3.85;1.80;;;19.40;62.40;;;;;;4510990;31;20193;-67
2023/01/24 13:42:57;;;;;;;3.92;2.00;;;19.40;62.50;;;;;;4507810;31;20156;-66
2023/01/24 13:45:29;;;;;;;2.53;1.77;;;19.40;62.50;;;;;;4484531;31;20152;-66
2023/01/24 13:47:58;;;;;;;5.22;1.90;;;19.40;62.60;;;;;;4484713;31;20151;-66